Current | Forecast
Updated: 11:30 PM CEST on August 21, 2017
Observed at Pamplona, Spain
Temperature 25°C
Humidity 34%
Dew Point 8°C
Wind North at 0 km/h
Pressure 1018 hPa (Rising)
Conditions Clear
Visibility -
UV N/A
Clouds
Yesterday's Maximum 25°C
Yesterday's Minimum 14°C approx.
Yesterday's Cooling Degree Days 2 approx.
Sunrise7:16 AM CEST
Sunset8:55 PM CEST
Moon Rise6:42 AM CEST
Moon Set8:52 PM CEST
Moon PhaseMoon Phase
New Moon
Raw METARMETAR LEPP 212130Z 00000KT CAVOK 25/08 Q1018


Monday
. High: 66° F.
Tuesday
. High: 69° F.
Wednesday
. High: 57° F.
Thursday
. High: 59° F.
Friday
. High: 69° F.
Saturday
. High: 62° F.
Sunday
. High: 60° F.
Monday
. High: 71° F.

Click here for Marine Information
Scientific forecaster discussion (NWS)

Units: English | Metric

Find the Weather for any City, State or Zipcode, or Country:

U.S. State List | Severe Weather | Tropical Storms | Ski Conditions
United States | Canada | Central America | South America | Asia | Europe | Australia | Africa | Islands

Weather Underground

© Copyright 2017
The Weather Company, LLC